Aeroporto :
LOGIN :

Iscrizione | Disclaimer

   EN    FR    IT 

 










Sommario :    VFR   VFR Marginale   IFR   IFR Intensivo   IFR Molto Intensivo
Visibilità : 
Base nubi : 
>= 8 km
>= 3000ft
5 / 8 km
1000 / 3000 ft
1500m / 5 km
500 / 1000 ft
800 / 1500m
200 / 500 ft
< 800m
< 200 ft
Simboli :   Temporali  Nebbia  Neve Forte  Precipitazioni Forti  Vento > 20 kt
SIGMETs :   Varie  Temporali  Ghiacco  Turbolenza  Onda orograficha  Ceneri Vulcaniche







- Altitudine del aeroporto : 79 ft
- Codice IATA : SPU


LDSP - Split

ULTIMO METAR :
  • 181330Z 11011KT 9999 SCT035 BKN045 15/10 Q1013 NOSIG

METARs OBSOLETI :
  • 181300Z 11010KT 9999 SCT035 BKN045 16/10 Q1013 NOSIG
  • 181230Z 11012KT 9999 SCT032 BKN040 16/10 Q1013 NOSIG
  • 181200Z 12010KT 9999 SCT032 BKN040 15/10 Q1014 NOSIG
  • 181130Z 11011KT 9999 SCT032 BKN040 15/10 Q1014 NOSIG
  • 181100Z 11012KT 9999 SCT032 BKN040 15/10 Q1014 NOSIG

TAF TAF LDSP
Valido dal 18 a 12 ore il 19 a 12 ore UTC


181125Z 1812/1912 11012KT 9999 SCT030 TX16/1814Z TN12/1901Z
PROB40
TEMPO 1821/1909 SHRA FEW020TCU BKN025
BECMG 1908/1910 22008KT
Nessun NOTAM noto per questo aeroporto.
2 SIGMETs conosciuti per la FIR Zagreb (LDZO) :
 
Temporali affogati
LDZO SIGMET 3 VALID 181300/181600 LDZA
LDZO ZAGREB FIR EMBD TS FCST WI N4538 E01436 - N4428 E01524 - N4425 E01428 - N4533 E01325 - N4538 E01436 TOP FL240 STNR NC=
Temporali affogati
LDZO SIGMET 2 VALID 181100/181300 LDZA
LDZO ZAGREB FIR EMBD TS OBS WI N4533 E01325 - N4419 E01419 - N4539 E01615 - N4612 E01538 - N4533 E01325 TOP FL240 STNR NC=



MetMap, La meteo Aeronautica in un colpo d'occhio ! - Copyright ORBIFLY Dicembre 2007 - Disclaimer

ORBIFLY MET'MAP TEAM :

Programmazione e sviluppo : Alexandra Zaïnal
Concezione e sviluppo : Baudouin d'Aumeries
Co-Programmazione e sviluppo : Marc-Olivier Méhu
Supporto tecnico e logistico : Manuel Goepfert
Aiuto per la traduzione : Arnaldo La Scala

Contatto : metmap@orbifly.com




FONTI E CREDITI :

   NOAA